Tropical Cyclones
[Index]
Main Index Home Page Stock Weather Photos Extreme Storms Discussion Storm News and Storm Chasing Reports Tropical Cyclones / Hurricanes / Typhoons Weather Data and Links Wild Fires / Bushfires Weather Observation Techniques Weather Picture Catalogue Tornado Pictures and Reports Stock Video Footage and DVDs for sale
Season 2002-2003 Tropical Cyclone GERRY Track Map
Season 2002-2003 Summaries: [BoM-AU] [JTWC-AU] [JTWC-SIO] [JTWC-SPAC] [JTWC-SH]
<<- Previous TC | JTWC 2002-2003 Season | Next TC ->>

click for intensity scale information  Lat/long Grid: Show Hide

 Date Labels: Show Hide

Joint Typhoon Warning Centre Cyclone Data

Name: GERRY

07 Feb 2003 18:00 UTC to 15 Feb 2003 12:00 UTC

    date/time    lat    long     hPa   cat  kts
2003-02-07 18   14.9    55.9    1002         25          
2003-02-08 00   14.5    56.1    1002         25          
2003-02-08 06   14.1    56.2    1004         25          
2003-02-08 12   13.7    56.3    1000         30          
2003-02-08 18   13.5    56.1    1000         30          
2003-02-09 00   13.3    55.9     997         35          
2003-02-09 06   13.0    55.5     997         35          
2003-02-09 12   12.6    55.2     997         35          
2003-02-09 18   12.1    54.9     997         35          
2003-02-10 00   11.7    54.7     994    1    40          
2003-02-10 06   11.4    54.4     991    1    45          
2003-02-10 12   11.6    54.0     987    1    50          
2003-02-10 18   12.1    53.9     984    2    55          
2003-02-11 00   12.6    53.8     984    2    55          
2003-02-11 06   13.3    53.7     980    2    60          
2003-02-11 12   14.4    53.6     980    2    60          
2003-02-11 18   15.5    53.8     980    2    60          
2003-02-12 00   16.1    54.2     980    2    60          
2003-02-12 06   16.7    54.6     976    2    65          
2003-02-12 12   17.2    55.2     967    3    75          
2003-02-12 18   18.0    56.1     958    3    85          
2003-02-13 00   18.7    57.3     949    3    95          
2003-02-13 06   19.4    58.5     938    4   105          
2003-02-13 12   20.5    59.8     938    4   105          
2003-02-13 18   21.5    60.9     944    4   100          
2003-02-14 00   22.6    61.8     944    4   100          
2003-02-14 06   23.8    62.6     954    3    90          
2003-02-14 12   24.7    63.4     967    3    75          
2003-02-14 18   25.6    64.2     984    2    55          
2003-02-15 00   26.4    65.1     997         35          
2003-02-15 06   27.1    66.1     997         35          
2003-02-15 12   27.9    67.0    1000         30          
Winds are 1-min average.

Tropical cyclone tracks developed by Michael Bath using data from the Joint Typhoon Warning Centre Best Tracks and Google Maps.


[Australian Severe Weather index] [Copyright Notice] [Email Contacts] [Search This Site] [Privacy Policy]
Document: tropical_cyclone_gerry.htm Updated: 28 June 2017